createdAt,value
2022-09-09T00:01:53.535Z,15.80
2022-09-09T00:04:29.614Z,15.90
2022-09-09T00:07:08.109Z,16.00
2022-09-09T00:09:46.286Z,16.00
2022-09-09T00:12:17.886Z,16.10
2022-09-09T00:14:51.950Z,16.10
2022-09-09T00:17:34.825Z,16.20
2022-09-09T00:20:07.988Z,16.20
2022-09-09T00:22:40.923Z,16.30
2022-09-09T00:25:17.752Z,16.30
2022-09-09T00:27:48.652Z,16.30
2022-09-09T00:30:20.675Z,16.40
2022-09-09T00:32:49.201Z,16.40
2022-09-09T00:35:23.374Z,16.40
2022-09-09T00:37:55.209Z,16.50
2022-09-09T00:40:29.212Z,16.50
2022-09-09T00:43:16.869Z,16.50
2022-09-09T00:46:01.336Z,16.60
2022-09-09T00:48:38.913Z,16.60
2022-09-09T00:51:14.037Z,16.60
2022-09-09T00:53:58.347Z,16.60
2022-09-09T00:56:31.913Z,16.70
2022-09-09T00:59:08.500Z,16.60
2022-09-09T01:01:36.510Z,16.60
2022-09-09T01:04:10.913Z,16.60
2022-09-09T01:06:40.239Z,16.60
2022-09-09T01:09:21.655Z,16.70
2022-09-09T01:11:59.108Z,16.70
2022-09-09T01:14:41.855Z,16.60
2022-09-09T01:17:16.237Z,16.60
2022-09-09T01:19:57.579Z,16.60
2022-09-09T01:22:36.585Z,16.60
2022-09-09T01:25:23.437Z,16.60
2022-09-09T01:27:55.677Z,16.60
2022-09-09T01:30:24.430Z,16.60
2022-09-09T01:32:55.494Z,16.60
2022-09-09T01:35:37.730Z,16.60
2022-09-09T01:38:06.021Z,16.60
2022-09-09T01:40:34.195Z,16.50
2022-09-09T01:43:03.806Z,16.50
2022-09-09T01:45:32.241Z,16.50
2022-09-09T01:48:01.408Z,16.50
2022-09-09T01:50:29.236Z,16.50
2022-09-09T01:52:59.772Z,16.50
2022-09-09T01:55:32.435Z,16.40
2022-09-09T01:58:16.891Z,16.40
2022-09-09T02:00:51.173Z,16.40
2022-09-09T02:03:27.075Z,16.40
2022-09-09T02:06:02.118Z,16.30
2022-09-09T02:08:38.783Z,16.30
2022-09-09T02:11:11.196Z,16.30
2022-09-09T02:13:41.434Z,16.20
2022-09-09T02:19:46.211Z,16.20
2022-09-09T02:22:14.400Z,16.20
2022-09-09T02:24:43.099Z,16.10
2022-09-09T02:27:11.893Z,16.20
2022-09-09T02:29:43.291Z,16.10
2022-09-09T02:32:16.241Z,16.20
2022-09-09T02:34:47.939Z,16.20
2022-09-09T02:37:19.586Z,16.20
2022-09-09T02:39:48.242Z,16.20
2022-09-09T02:42:16.811Z,16.20
2022-09-09T02:44:47.083Z,16.20
2022-09-09T02:47:31.822Z,16.20
2022-09-09T02:50:09.998Z,16.20
2022-09-09T02:52:49.444Z,16.10
2022-09-09T02:55:22.637Z,16.10
2022-09-09T02:57:51.976Z,16.10
2022-09-09T03:00:27.214Z,16.10
2022-09-09T03:02:55.487Z,16.00
2022-09-09T03:05:23.719Z,16.00
2022-09-09T03:07:51.994Z,16.00
2022-09-09T03:10:20.159Z,16.00
2022-09-09T03:12:48.101Z,15.90
2022-09-09T03:15:16.322Z,16.00
2022-09-09T03:17:45.591Z,15.90
2022-09-09T03:20:13.589Z,15.90
2022-09-09T03:22:41.609Z,15.80
2022-09-09T03:25:09.977Z,15.80
2022-09-09T03:27:38.055Z,15.80
2022-09-09T03:30:06.727Z,15.70
2022-09-09T03:32:34.621Z,15.70
2022-09-09T03:35:03.945Z,15.60
2022-09-09T03:37:32.752Z,15.60
2022-09-09T03:40:00.875Z,15.60
2022-09-09T03:42:28.796Z,15.60
2022-09-09T03:44:58.750Z,15.60
2022-09-09T03:47:26.653Z,15.60
2022-09-09T03:49:54.453Z,15.50
2022-09-09T03:52:26.032Z,15.60
2022-09-09T03:54:54.374Z,15.60
2022-09-09T03:57:22.698Z,15.60
2022-09-09T03:59:50.621Z,15.60
2022-09-09T04:02:18.538Z,15.60
2022-09-09T04:04:46.389Z,15.70
2022-09-09T04:07:15.065Z,15.70
2022-09-09T04:09:44.247Z,15.70
2022-09-09T04:12:14.187Z,15.70
2022-09-09T04:14:42.441Z,15.70
2022-09-09T04:17:10.309Z,15.70
2022-09-09T04:19:38.107Z,15.70
2022-09-09T04:22:06.610Z,15.70
2022-09-09T04:24:34.720Z,15.60
2022-09-09T04:27:04.169Z,15.60
2022-09-09T04:29:32.042Z,15.60
2022-09-09T04:32:02.969Z,15.50
2022-09-09T04:34:31.508Z,15.40
2022-09-09T04:36:59.777Z,15.30
2022-09-09T04:39:27.623Z,15.20
2022-09-09T04:41:56.418Z,15.20
2022-09-09T04:44:25.671Z,15.10
2022-09-09T04:46:53.539Z,15.10
2022-09-09T04:49:24.557Z,15.10
2022-09-09T04:51:53.064Z,15.10
2022-09-09T04:54:20.939Z,15.20
2022-09-09T04:56:53.024Z,15.20
2022-09-09T04:59:21.520Z,15.30
2022-09-09T05:01:52.487Z,15.40
2022-09-09T05:04:20.466Z,15.40
2022-09-09T05:06:48.851Z,15.50
2022-09-09T05:09:16.773Z,15.60
2022-09-09T05:11:47.760Z,15.60
2022-09-09T05:14:16.429Z,15.60
2022-09-09T05:16:45.450Z,15.60
2022-09-09T05:19:15.257Z,15.70
2022-09-09T05:21:43.224Z,15.70
2022-09-09T05:24:12.034Z,15.60
2022-09-09T05:26:40.582Z,15.60
2022-09-09T05:29:09.294Z,15.60
2022-09-09T05:31:37.729Z,15.60
2022-09-09T05:34:05.723Z,15.60
2022-09-09T05:36:35.336Z,15.50
2022-09-09T05:39:03.230Z,15.50
2022-09-09T05:41:32.618Z,15.50
2022-09-09T05:44:02.348Z,15.40
2022-09-09T05:46:30.432Z,15.40
2022-09-09T05:48:59.392Z,15.40
2022-09-09T05:51:31.276Z,15.40
2022-09-09T05:54:00.722Z,15.40
2022-09-09T05:56:31.661Z,15.50
2022-09-09T05:59:01.169Z,15.50
2022-09-09T06:01:31.523Z,15.50
2022-09-09T06:04:00.238Z,15.50
2022-09-09T06:06:30.101Z,15.60
2022-09-09T06:09:00.270Z,15.60
2022-09-09T06:11:32.196Z,15.70
2022-09-09T06:14:01.239Z,15.70
2022-09-09T06:16:30.532Z,15.70
2022-09-09T06:18:59.791Z,15.90
2022-09-09T06:21:31.180Z,15.90
2022-09-09T06:24:01.500Z,16.10
2022-09-09T06:26:31.708Z,16.20
2022-09-09T06:29:01.781Z,16.30
2022-09-09T06:31:35.585Z,16.40
2022-09-09T06:34:06.580Z,16.40
2022-09-09T06:36:37.771Z,16.50
2022-09-09T06:39:13.631Z,16.50
2022-09-09T06:41:43.923Z,16.60
2022-09-09T06:44:14.447Z,16.60
2022-09-09T06:46:42.442Z,16.70
2022-09-09T06:49:11.200Z,16.70
2022-09-09T06:51:43.634Z,16.70
2022-09-09T06:54:14.399Z,16.80
2022-09-09T06:56:44.520Z,16.80
2022-09-09T06:59:13.169Z,16.70
2022-09-09T07:01:43.298Z,16.80
2022-09-09T07:04:12.011Z,16.80
2022-09-09T07:06:50.355Z,16.80
2022-09-09T07:09:20.091Z,16.80
2022-09-09T07:11:51.790Z,16.80
2022-09-09T07:14:20.029Z,16.90
2022-09-09T07:16:48.851Z,17.00
2022-09-09T07:19:17.500Z,17.20
2022-09-09T07:21:46.259Z,17.40
2022-09-09T07:24:15.058Z,17.50
2022-09-09T07:27:22.568Z,17.50
2022-09-09T07:29:50.420Z,17.50
2022-09-09T07:32:18.696Z,17.50
2022-09-09T07:34:47.172Z,17.50
2022-09-09T07:37:15.602Z,17.50
2022-09-09T07:39:43.568Z,17.50
2022-09-09T07:42:14.414Z,17.60
2022-09-09T07:44:42.267Z,17.50
2022-09-09T07:47:12.876Z,17.50
2022-09-09T07:49:41.861Z,17.60
2022-09-09T07:52:09.808Z,17.70
2022-09-09T07:54:37.648Z,17.80
2022-09-09T07:57:05.988Z,18.00
2022-09-09T07:59:35.222Z,18.20
2022-09-09T08:02:03.050Z,18.40
2022-09-09T08:04:30.822Z,18.50
2022-09-09T08:07:00.462Z,18.60
2022-09-09T08:09:30.218Z,18.70
2022-09-09T08:11:59.205Z,18.80
2022-09-09T08:14:27.274Z,18.80
2022-09-09T08:16:57.229Z,18.90
2022-09-09T08:19:25.591Z,18.90
2022-09-09T08:21:53.441Z,18.90
2022-09-09T08:24:21.478Z,18.80
2022-09-09T08:26:50.822Z,18.90
2022-09-09T08:29:19.216Z,18.90
2022-09-09T08:31:48.886Z,18.90
2022-09-09T08:34:18.591Z,19.00
2022-09-09T08:36:47.792Z,19.10
2022-09-09T08:39:18.692Z,19.10
2022-09-09T08:42:19.671Z,19.10
2022-09-09T08:45:04.591Z,19.10
2022-09-09T08:47:40.354Z,19.10
2022-09-09T08:50:19.427Z,19.00
2022-09-09T08:52:54.483Z,19.00
2022-09-09T08:55:28.989Z,19.00
2022-09-09T08:58:01.935Z,18.90
2022-09-09T09:00:38.225Z,18.90
2022-09-09T09:03:15.450Z,19.00
2022-09-09T09:05:51.905Z,19.00
2022-09-09T09:08:29.068Z,19.00
2022-09-09T09:11:01.171Z,19.00
2022-09-09T09:13:41.654Z,19.00
2022-09-09T09:16:19.238Z,19.10
2022-09-09T09:18:47.888Z,19.10
2022-09-09T09:21:22.196Z,19.20
2022-09-09T09:23:57.921Z,19.30
2022-09-09T09:26:31.130Z,19.40
2022-09-09T09:29:01.074Z,19.50
2022-09-09T09:31:29.067Z,19.60
2022-09-09T09:34:00.285Z,19.70
2022-09-09T09:36:37.409Z,19.70
2022-09-09T09:41:55.316Z,19.80
2022-09-09T09:44:28.298Z,19.80
2022-09-09T09:47:08.973Z,19.90
2022-09-09T09:49:36.912Z,19.90
2022-09-09T09:52:08.149Z,20.10
2022-09-09T09:54:39.939Z,20.20
2022-09-09T09:57:12.656Z,20.40
2022-09-09T09:59:41.409Z,20.60
2022-09-09T10:02:21.314Z,20.80
2022-09-09T10:04:49.476Z,20.90
2022-09-09T10:07:22.324Z,21.00
2022-09-09T10:09:55.263Z,21.10
2022-09-09T10:12:36.001Z,21.20
2022-09-09T10:15:11.603Z,21.20
2022-09-09T10:17:46.718Z,21.20
2022-09-09T10:20:30.025Z,21.10
2022-09-09T10:23:14.886Z,21.00
2022-09-09T10:25:58.604Z,20.90
2022-09-09T10:28:44.400Z,20.70
2022-09-09T10:31:29.753Z,20.60
2022-09-09T10:34:08.206Z,20.50
2022-09-09T10:36:39.104Z,20.40
2022-09-09T10:39:27.171Z,20.40
2022-09-09T10:42:04.652Z,20.30
2022-09-09T10:44:48.129Z,20.30
2022-09-09T10:47:50.294Z,20.30
2022-09-09T10:51:00.586Z,20.20
2022-09-09T10:53:38.595Z,20.30
2022-09-09T10:56:11.775Z,20.40
2022-09-09T10:58:44.448Z,20.40
2022-09-09T11:01:19.448Z,20.50
2022-09-09T11:03:53.918Z,20.50
2022-09-09T11:06:27.198Z,20.60
2022-09-09T11:08:57.081Z,20.70
2022-09-09T11:11:31.991Z,20.70
2022-09-09T11:14:07.589Z,20.60
2022-09-09T11:16:42.832Z,20.50
2022-09-09T11:19:17.779Z,20.40
2022-09-09T11:21:48.121Z,20.40
2022-09-09T11:24:20.268Z,20.40
2022-09-09T11:26:53.509Z,20.40
2022-09-09T11:29:58.289Z,20.40
2022-09-09T11:32:45.819Z,20.40
2022-09-09T11:35:33.581Z,20.40
2022-09-09T11:38:22.645Z,20.50
2022-09-09T11:41:00.078Z,20.60
2022-09-09T11:43:33.297Z,20.70
2022-09-09T11:46:04.459Z,20.90
2022-09-09T11:48:36.062Z,21.10
2022-09-09T11:51:10.071Z,21.40
2022-09-09T11:53:51.575Z,21.50
2022-09-09T11:56:33.399Z,21.70
2022-09-09T11:59:07.832Z,21.80
2022-09-09T12:01:42.503Z,22.00
2022-09-09T12:04:22.085Z,22.00
2022-09-09T12:06:54.492Z,21.90
2022-09-09T12:09:28.979Z,21.90
2022-09-09T12:12:08.008Z,21.90
2022-09-09T12:14:45.466Z,22.00
2022-09-09T12:17:21.590Z,22.20
2022-09-09T12:19:49.782Z,22.40
2022-09-09T12:22:27.886Z,22.40
2022-09-09T12:25:05.239Z,22.30
2022-09-09T12:27:39.230Z,22.20
2022-09-09T12:30:12.791Z,22.20
2022-09-09T12:32:40.611Z,22.10
2022-09-09T12:35:14.105Z,22.10
2022-09-09T12:37:47.214Z,22.00
2022-09-09T12:40:22.846Z,21.90
2022-09-09T12:42:51.235Z,21.80
2022-09-09T12:45:26.220Z,21.70
2022-09-09T12:47:57.942Z,21.70
2022-09-09T12:50:28.485Z,21.60
2022-09-09T12:52:59.368Z,21.70
2022-09-09T12:55:31.861Z,21.70
2022-09-09T12:58:01.178Z,21.70
2022-09-09T13:00:31.449Z,21.70
2022-09-09T13:03:01.927Z,21.70
2022-09-09T13:05:35.795Z,21.70
2022-09-09T13:08:05.294Z,21.60
2022-09-09T13:10:49.780Z,21.40
2022-09-09T13:13:23.580Z,21.30
2022-09-09T13:15:57.356Z,21.20
2022-09-09T13:18:28.631Z,21.10
2022-09-09T13:20:58.637Z,20.90
2022-09-09T13:23:30.252Z,20.80
2022-09-09T13:25:59.617Z,20.60
2022-09-09T13:28:33.588Z,20.50
2022-09-09T13:31:05.758Z,20.40
2022-09-09T13:33:38.029Z,20.30
2022-09-09T13:36:09.059Z,20.20
2022-09-09T13:38:40.243Z,20.10
2022-09-09T13:41:22.822Z,20.10
2022-09-09T13:43:50.788Z,20.00
2022-09-09T13:46:33.847Z,19.90
2022-09-09T13:49:03.307Z,19.80
2022-09-09T13:51:37.954Z,19.70
2022-09-09T13:54:07.553Z,19.60
2022-09-09T13:56:36.159Z,19.60
2022-09-09T13:59:04.973Z,19.50
2022-09-09T14:01:35.768Z,19.50
2022-09-09T14:04:04.036Z,19.40
2022-09-09T14:06:33.119Z,19.30
2022-09-09T14:09:01.201Z,19.20
2022-09-09T14:11:28.998Z,19.20
2022-09-09T14:13:56.825Z,19.10
2022-09-09T14:16:24.729Z,19.00
2022-09-09T14:18:54.347Z,19.00
2022-09-09T14:21:22.542Z,18.90
2022-09-09T14:23:50.683Z,18.90
2022-09-09T14:26:21.985Z,18.90
2022-09-09T14:28:55.180Z,18.90
2022-09-09T14:31:23.815Z,18.80
2022-09-09T14:33:53.931Z,18.80
2022-09-09T14:36:23.913Z,18.80
2022-09-09T14:38:53.550Z,18.80
2022-09-09T14:41:23.436Z,18.80
2022-09-09T14:43:51.557Z,18.80
2022-09-09T14:46:21.086Z,18.80
2022-09-09T14:48:50.437Z,18.80
2022-09-09T14:51:21.284Z,18.70
2022-09-09T14:53:53.810Z,18.60
2022-09-09T14:56:24.031Z,18.60
2022-09-09T14:58:54.426Z,18.60
2022-09-09T15:01:23.208Z,18.50
2022-09-09T15:03:53.288Z,18.50
2022-09-09T15:06:22.269Z,18.50
2022-09-09T15:08:54.013Z,18.50
2022-09-09T15:11:25.227Z,18.50
2022-09-09T15:13:54.127Z,18.50
2022-09-09T15:16:24.616Z,18.50
2022-09-09T15:18:55.105Z,18.50
2022-09-09T15:21:24.221Z,18.50
2022-09-09T15:23:53.804Z,18.50
2022-09-09T15:26:22.085Z,18.50
2022-09-09T15:28:50.725Z,18.50
2022-09-09T15:31:19.936Z,18.50
2022-09-09T15:33:51.948Z,18.50
2022-09-09T15:36:21.445Z,18.50
2022-09-09T15:38:49.602Z,18.60
2022-09-09T15:41:20.813Z,18.70
2022-09-09T15:43:50.880Z,18.70
2022-09-09T15:46:31.287Z,18.70
2022-09-09T15:49:00.651Z,18.80
2022-09-09T15:51:42.155Z,18.80
2022-09-09T15:54:13.054Z,18.90
2022-09-09T15:56:43.169Z,18.90
2022-09-09T15:59:12.172Z,19.00
2022-09-09T16:01:40.782Z,19.00
2022-09-09T16:04:08.542Z,19.00
2022-09-09T16:06:37.284Z,19.00
2022-09-09T16:09:07.738Z,19.10
2022-09-09T16:11:37.716Z,19.10
2022-09-09T16:14:07.555Z,19.10
2022-09-09T16:16:36.833Z,19.20
2022-09-09T16:19:06.888Z,19.20
2022-09-09T16:21:36.693Z,19.20
2022-09-09T16:24:05.996Z,19.20
2022-09-09T16:26:35.600Z,19.30
2022-09-09T16:29:08.204Z,19.30
2022-09-09T16:31:36.183Z,19.20
2022-09-09T16:34:05.194Z,19.20
2022-09-09T16:36:35.721Z,19.20
2022-09-09T16:39:05.498Z,19.10
2022-09-09T16:41:34.021Z,19.00
2022-09-09T16:44:03.497Z,19.00
2022-09-09T16:46:35.811Z,18.90
2022-09-09T16:49:05.768Z,18.90
2022-09-09T16:51:35.723Z,18.80
2022-09-09T16:54:05.472Z,18.70
2022-09-09T16:56:35.137Z,18.60
2022-09-09T16:59:04.714Z,18.50
2022-09-09T17:01:38.017Z,18.40
2022-09-09T17:04:09.323Z,18.30
2022-09-09T17:06:39.017Z,18.20
2022-09-09T17:09:09.622Z,18.20
2022-09-09T17:11:38.543Z,18.10
2022-09-09T17:14:07.424Z,18.00
2022-09-09T17:16:37.439Z,17.90
2022-09-09T17:19:05.798Z,17.80
2022-09-09T17:21:34.501Z,17.80
2022-09-09T17:24:02.651Z,17.80
2022-09-09T17:26:33.987Z,17.70
2022-09-09T17:29:02.922Z,17.60
2022-09-09T17:31:32.240Z,17.60
2022-09-09T17:34:05.993Z,17.50
2022-09-09T17:36:35.701Z,17.50
2022-09-09T17:39:05.176Z,17.40
2022-09-09T17:41:35.689Z,17.40
2022-09-09T17:44:04.742Z,17.40
2022-09-09T17:46:35.241Z,17.20
2022-09-09T17:49:07.290Z,17.20
2022-09-09T17:51:36.385Z,17.10
2022-09-09T17:54:07.124Z,17.00
2022-09-09T17:56:36.166Z,16.90
2022-09-09T17:59:16.232Z,16.90
2022-09-09T18:01:46.729Z,16.80
2022-09-09T18:04:17.434Z,16.70
2022-09-09T18:06:48.088Z,16.70
2022-09-09T18:09:18.067Z,16.60
2022-09-09T18:11:47.826Z,16.60
2022-09-09T18:14:18.447Z,16.50
2022-09-09T18:16:47.083Z,16.50
2022-09-09T18:19:18.738Z,16.40
2022-09-09T18:21:46.831Z,16.40
2022-09-09T18:24:17.603Z,16.30
2022-09-09T18:26:47.390Z,16.30
2022-09-09T18:29:18.127Z,16.30
2022-09-09T18:31:46.086Z,16.30
2022-09-09T18:34:17.395Z,16.30
2022-09-09T18:36:47.793Z,16.30
2022-09-09T18:39:20.553Z,16.30
2022-09-09T18:41:50.228Z,16.20
2022-09-09T18:44:20.654Z,16.20
2022-09-09T18:46:49.422Z,16.20
2022-09-09T18:49:19.239Z,16.20
2022-09-09T18:51:47.789Z,16.30
2022-09-09T18:54:17.702Z,16.30
2022-09-09T18:56:45.906Z,16.30
2022-09-09T18:59:15.437Z,16.40
2022-09-09T19:01:44.620Z,16.50
2022-09-09T19:04:12.490Z,16.50
2022-09-09T19:06:45.015Z,16.60
2022-09-09T19:09:13.584Z,16.60
2022-09-09T19:11:41.950Z,16.70
2022-09-09T19:14:13.433Z,16.70
2022-09-09T19:16:41.445Z,16.80
2022-09-09T19:19:13.255Z,16.80
2022-09-09T19:21:43.643Z,16.80
2022-09-09T19:24:15.204Z,16.80
2022-09-09T19:26:45.748Z,16.80
2022-09-09T19:29:15.956Z,16.80
2022-09-09T19:32:01.877Z,16.90
2022-09-09T19:34:32.583Z,16.90
2022-09-09T19:37:01.765Z,16.90
2022-09-09T19:39:29.588Z,16.90
2022-09-09T19:41:57.320Z,16.90
2022-09-09T19:44:25.076Z,16.90
2022-09-09T19:46:55.542Z,16.80
2022-09-09T19:49:23.508Z,16.80
2022-09-09T19:51:51.612Z,16.70
2022-09-09T19:54:21.053Z,16.60
2022-09-09T19:56:48.814Z,16.50
2022-09-09T19:59:16.664Z,16.50
2022-09-09T20:01:45.703Z,16.40
2022-09-09T20:04:15.009Z,16.30
2022-09-09T20:06:44.955Z,16.20
2022-09-09T20:09:15.398Z,16.20
2022-09-09T20:11:45.543Z,16.10
2022-09-09T20:14:14.280Z,16.00
2022-09-09T20:16:43.137Z,16.00
2022-09-09T20:19:13.034Z,16.00
2022-09-09T20:21:47.282Z,15.90
2022-09-09T20:24:17.965Z,15.90
2022-09-09T20:26:48.748Z,15.90
2022-09-09T20:29:20.961Z,15.80
2022-09-09T20:31:49.770Z,15.70
2022-09-09T20:34:21.500Z,15.70
2022-09-09T20:36:50.816Z,15.60
2022-09-09T20:39:22.046Z,15.60
2022-09-09T20:41:51.237Z,15.60
2022-09-09T20:44:21.664Z,15.60
2022-09-09T20:46:50.736Z,15.60
2022-09-09T20:49:20.617Z,15.60
2022-09-09T20:51:49.670Z,15.70
2022-09-09T20:54:19.635Z,15.80
2022-09-09T20:56:48.103Z,15.90
2022-09-09T20:59:19.733Z,15.90
2022-09-09T21:01:48.141Z,16.00
2022-09-09T21:04:17.489Z,16.00
2022-09-09T21:06:45.724Z,15.90
2022-09-09T21:09:13.990Z,15.90
2022-09-09T21:11:42.194Z,15.80
2022-09-09T21:14:10.113Z,15.80
2022-09-09T21:16:39.328Z,15.90
2022-09-09T21:19:07.265Z,15.90
2022-09-09T21:21:36.155Z,15.90
2022-09-09T21:24:04.710Z,15.90
2022-09-09T21:26:32.642Z,15.80
2022-09-09T21:29:00.417Z,15.80
2022-09-09T21:31:28.721Z,15.80
2022-09-09T21:33:58.823Z,15.70
2022-09-09T21:36:28.062Z,15.60
2022-09-09T21:38:56.003Z,15.60
2022-09-09T21:41:23.871Z,15.50
2022-09-09T21:43:54.244Z,15.50
2022-09-09T21:46:26.588Z,15.40
2022-09-09T21:48:56.568Z,15.40
2022-09-09T21:51:26.291Z,15.40
2022-09-09T21:53:57.204Z,15.50
2022-09-09T21:56:26.690Z,15.50
2022-09-09T21:58:58.269Z,15.70
2022-09-09T22:01:26.614Z,15.70
2022-09-09T22:03:54.733Z,15.80
2022-09-09T22:06:22.762Z,15.90
2022-09-09T22:08:51.972Z,16.00
2022-09-09T22:11:22.161Z,16.00
2022-09-09T22:13:50.929Z,16.10
2022-09-09T22:16:21.263Z,16.10
2022-09-09T22:18:52.420Z,16.20
2022-09-09T22:21:21.899Z,16.20
2022-09-09T22:23:56.753Z,16.20
2022-09-09T22:26:24.699Z,16.20
2022-09-09T22:28:53.797Z,16.20
2022-09-09T22:31:22.564Z,16.10
2022-09-09T22:33:51.733Z,16.00
2022-09-09T22:36:20.249Z,16.00
2022-09-09T22:38:48.135Z,15.90
2022-09-09T22:41:18.735Z,15.90
2022-09-09T22:43:47.210Z,15.80
2022-09-09T22:46:15.440Z,15.80
2022-09-09T22:48:43.786Z,15.70
2022-09-09T22:51:13.219Z,15.70
2022-09-09T22:53:42.800Z,15.60
2022-09-09T22:56:15.013Z,15.50
2022-09-09T22:58:44.296Z,15.50
2022-09-09T23:01:15.361Z,15.40
2022-09-09T23:03:45.996Z,15.40
2022-09-09T23:06:16.947Z,15.30
2022-09-09T23:08:45.970Z,15.30
2022-09-09T23:11:14.195Z,15.30
2022-09-09T23:13:49.503Z,15.20
2022-09-09T23:16:19.210Z,15.20
2022-09-09T23:18:47.998Z,15.10
2022-09-09T23:21:16.743Z,15.20
2022-09-09T23:23:45.479Z,15.20
2022-09-09T23:26:19.065Z,15.20
2022-09-09T23:28:49.862Z,15.30
2022-09-09T23:31:20.554Z,15.30
2022-09-09T23:33:49.022Z,15.40
2022-09-09T23:36:19.690Z,15.50
2022-09-09T23:38:47.770Z,15.50
2022-09-09T23:41:21.023Z,15.60
2022-09-09T23:43:52.131Z,15.60
2022-09-09T23:46:22.394Z,15.60
2022-09-09T23:48:51.785Z,15.60
2022-09-09T23:51:23.415Z,15.60
2022-09-09T23:53:53.412Z,15.60
2022-09-09T23:56:22.440Z,15.50
2022-09-09T23:58:52.399Z,15.50
